createdAt,value
2018-11-06T00:00:26.205Z,9.45
2018-11-06T00:02:59.793Z,8.73
2018-11-06T00:05:27.912Z,8.98
2018-11-06T00:07:56.065Z,10.90
2018-11-06T00:10:24.172Z,8.50
2018-11-06T00:12:52.290Z,9.05
2018-11-06T00:15:20.373Z,9.00
2018-11-06T00:17:48.545Z,9.43
2018-11-06T00:20:16.648Z,10.10
2018-11-06T00:22:44.786Z,9.25
2018-11-06T00:25:13.612Z,8.48
2018-11-06T00:27:41.994Z,9.95
2018-11-06T00:30:12.049Z,9.38
2018-11-06T00:32:40.945Z,7.72
2018-11-06T00:35:10.648Z,9.73
2018-11-06T00:37:39.096Z,8.53
2018-11-06T00:40:07.229Z,8.18
2018-11-06T00:42:35.429Z,9.38
2018-11-06T00:45:03.576Z,9.75
2018-11-06T00:47:31.689Z,8.88
2018-11-06T00:49:59.842Z,9.78
2018-11-06T00:52:27.941Z,10.20
2018-11-06T00:54:56.162Z,9.50
2018-11-06T00:57:24.254Z,10.08
2018-11-06T00:59:52.862Z,8.38
2018-11-06T01:02:20.979Z,9.70
2018-11-06T01:04:49.066Z,9.13
2018-11-06T01:07:17.202Z,10.55
2018-11-06T01:09:45.313Z,8.23
2018-11-06T01:12:13.484Z,10.50
2018-11-06T01:14:41.657Z,9.58
2018-11-06T01:17:09.712Z,8.25
2018-11-06T01:19:37.805Z,8.50
2018-11-06T01:22:06.357Z,8.80
2018-11-06T01:24:34.493Z,8.50
2018-11-06T01:27:02.751Z,10.00
2018-11-06T01:29:30.830Z,9.15
2018-11-06T01:31:58.918Z,9.28
2018-11-06T01:34:27.041Z,9.48
2018-11-06T01:36:55.133Z,9.75
2018-11-06T01:39:23.204Z,8.40
2018-11-06T01:41:51.327Z,10.43
2018-11-06T01:44:19.432Z,8.33
2018-11-06T01:46:47.928Z,9.15
2018-11-06T01:49:15.992Z,9.98
2018-11-06T01:51:44.286Z,9.08
2018-11-06T01:54:12.448Z,8.78
2018-11-06T01:56:40.888Z,8.38
2018-11-06T01:59:09.014Z,9.15
2018-11-06T02:01:37.109Z,8.20
2018-11-06T02:04:05.273Z,8.20
2018-11-06T02:06:33.345Z,9.00
2018-11-06T02:09:01.442Z,9.05
2018-11-06T02:11:29.536Z,9.50
2018-11-06T02:13:57.630Z,9.63
2018-11-06T02:16:25.790Z,9.33
2018-11-06T02:18:53.899Z,9.63
2018-11-06T02:21:21.982Z,8.45
2018-11-06T02:23:50.061Z,9.53
2018-11-06T02:26:18.132Z,10.05
2018-11-06T02:28:46.208Z,8.88
2018-11-06T02:31:14.302Z,9.08
2018-11-06T02:33:42.617Z,9.20
2018-11-06T02:36:10.788Z,6.85
2018-11-06T02:38:39.157Z,8.45
2018-11-06T02:41:07.336Z,8.13
2018-11-06T02:43:35.444Z,8.55
2018-11-06T02:46:03.529Z,9.00
2018-11-06T02:48:31.610Z,9.28
2018-11-06T02:50:59.701Z,9.63
2018-11-06T02:53:27.845Z,9.15
2018-11-06T02:55:56.019Z,9.80
2018-11-06T02:58:24.105Z,9.30
2018-11-06T03:00:52.192Z,8.90
2018-11-06T03:03:20.289Z,8.95
2018-11-06T03:05:48.441Z,8.58
2018-11-06T03:08:16.605Z,9.05
2018-11-06T03:10:44.897Z,8.48
2018-11-06T03:13:12.996Z,8.78
2018-11-06T03:15:41.069Z,10.03
2018-11-06T03:18:09.182Z,9.90
2018-11-06T03:20:37.240Z,9.85
2018-11-06T03:23:05.450Z,10.68
2018-11-06T03:25:33.554Z,10.13
2018-11-06T03:28:01.645Z,10.38
2018-11-06T03:30:29.758Z,9.58
2018-11-06T03:32:57.848Z,8.48
2018-11-06T03:35:25.925Z,8.25
2018-11-06T03:37:54.132Z,8.68
2018-11-06T03:40:22.182Z,9.05
2018-11-06T03:42:50.297Z,10.03
2018-11-06T03:45:18.391Z,8.85
2018-11-06T03:47:46.505Z,8.20
2018-11-06T03:50:14.695Z,11.25
2018-11-06T03:52:42.797Z,9.68
2018-11-06T03:55:10.853Z,8.83
2018-11-06T03:57:38.943Z,8.50
2018-11-06T04:00:09.623Z,8.98
2018-11-06T04:02:37.717Z,8.60
2018-11-06T04:05:06.675Z,8.00
2018-11-06T04:07:34.821Z,10.15
2018-11-06T04:10:03.093Z,9.18
2018-11-06T04:12:31.172Z,9.33
2018-11-06T04:14:59.231Z,8.63
2018-11-06T04:17:27.333Z,9.85
2018-11-06T04:19:55.402Z,9.45
2018-11-06T04:22:23.491Z,9.80
2018-11-06T04:24:51.632Z,8.88
2018-11-06T04:27:19.683Z,8.83
2018-11-06T04:29:47.792Z,8.05
2018-11-06T04:32:15.852Z,8.68
2018-11-06T04:34:43.938Z,8.68
2018-11-06T04:37:12.202Z,9.73
2018-11-06T04:39:40.300Z,10.93
2018-11-06T04:42:08.405Z,9.50
2018-11-06T04:44:36.462Z,8.35
2018-11-06T04:47:04.541Z,9.95
2018-11-06T04:49:32.590Z,9.60
2018-11-06T04:52:00.660Z,9.28
2018-11-06T04:54:28.719Z,8.30
2018-11-06T04:56:56.813Z,8.68
2018-11-06T04:59:24.883Z,12.40
2018-11-06T05:01:52.987Z,11.35
2018-11-06T05:04:21.024Z,10.48
2018-11-06T05:06:49.242Z,10.70
2018-11-06T05:09:17.271Z,9.28
2018-11-06T05:11:45.350Z,9.50
2018-11-06T05:14:13.559Z,9.83
2018-11-06T05:16:41.545Z,8.48
2018-11-06T05:19:09.704Z,9.60
2018-11-06T05:21:37.729Z,8.53
2018-11-06T05:24:05.833Z,8.80
2018-11-06T05:26:33.905Z,8.33
2018-11-06T05:29:01.973Z,8.00
2018-11-06T05:31:30.101Z,10.08
2018-11-06T05:33:58.172Z,8.65
2018-11-06T05:36:26.293Z,9.45
2018-11-06T05:38:54.520Z,9.40
2018-11-06T05:41:22.535Z,9.15
2018-11-06T05:43:50.599Z,11.50
2018-11-06T05:46:18.651Z,9.55
2018-11-06T05:48:46.728Z,9.70
2018-11-06T05:51:14.973Z,8.80
2018-11-06T05:53:43.054Z,9.55
2018-11-06T05:56:11.162Z,9.15
2018-11-06T05:58:39.237Z,8.58
2018-11-06T06:01:07.293Z,8.78
2018-11-06T06:03:35.390Z,8.08
2018-11-06T06:06:03.464Z,9.10
2018-11-06T06:08:31.551Z,8.63
2018-11-06T06:10:59.667Z,9.48
2018-11-06T06:13:27.713Z,8.35
2018-11-06T06:15:55.809Z,8.28
2018-11-06T06:18:23.872Z,9.33
2018-11-06T06:20:52.029Z,8.75
2018-11-06T06:23:20.111Z,8.10
2018-11-06T06:25:48.196Z,9.68
2018-11-06T06:28:16.312Z,8.33
2018-11-06T06:30:44.328Z,8.40
2018-11-06T06:33:12.390Z,9.25
2018-11-06T06:35:40.520Z,7.95
2018-11-06T06:38:08.605Z,9.18
2018-11-06T06:40:36.720Z,9.55
2018-11-06T06:43:05.159Z,6.62
2018-11-06T06:45:33.227Z,7.97
2018-11-06T06:48:01.289Z,7.53
2018-11-06T06:50:29.352Z,8.05
2018-11-06T06:52:57.415Z,8.23
2018-11-06T06:55:25.486Z,7.95
2018-11-06T06:57:53.599Z,8.08
2018-11-06T07:00:22.446Z,7.78
2018-11-06T07:02:50.573Z,7.78
2018-11-06T07:05:20.154Z,7.15
2018-11-06T07:07:48.239Z,6.92
2018-11-06T07:10:17.720Z,7.60
2018-11-06T07:12:46.559Z,6.95
2018-11-06T07:15:15.909Z,8.75
2018-11-06T07:17:44.718Z,9.83
2018-11-06T07:20:27.393Z,8.55
2018-11-06T07:22:55.498Z,9.35
2018-11-06T07:25:23.600Z,10.10
2018-11-06T07:27:51.683Z,10.03
2018-11-06T07:30:21.254Z,8.68
2018-11-06T07:32:49.389Z,8.33
2018-11-06T07:35:18.537Z,7.87
2018-11-06T07:37:46.689Z,9.40
2018-11-06T07:40:16.197Z,10.15
2018-11-06T07:42:44.329Z,10.28
2018-11-06T07:45:14.386Z,10.40
2018-11-06T07:47:42.584Z,8.40
2018-11-06T07:50:10.474Z,8.65
2018-11-06T07:52:39.110Z,8.43
2018-11-06T07:55:09.333Z,8.00
2018-11-06T07:57:37.381Z,8.00
2018-11-06T08:00:08.643Z,8.63
2018-11-06T08:02:36.770Z,7.80
2018-11-06T08:05:05.520Z,8.23
2018-11-06T08:07:33.617Z,9.00
2018-11-06T08:10:01.713Z,8.10
2018-11-06T08:12:29.791Z,9.50
2018-11-06T08:14:57.952Z,8.83
2018-11-06T08:17:25.986Z,7.62
2018-11-06T08:19:54.093Z,8.85
2018-11-06T08:22:22.153Z,8.17
2018-11-06T08:24:50.263Z,8.73
2018-11-06T08:27:18.349Z,6.63
2018-11-06T08:29:46.498Z,9.00
2018-11-06T08:32:14.847Z,7.57
2018-11-06T08:34:42.652Z,6.90
2018-11-06T08:37:10.843Z,7.87
2018-11-06T08:39:38.868Z,7.97
2018-11-06T08:42:07.431Z,7.83
2018-11-06T08:44:35.529Z,8.10
2018-11-06T08:47:03.620Z,7.80
2018-11-06T08:49:31.720Z,8.80
2018-11-06T08:51:59.791Z,9.37
2018-11-06T08:54:27.909Z,7.60
2018-11-06T08:56:55.941Z,7.40
2018-11-06T08:59:24.045Z,8.90
2018-11-06T09:01:52.140Z,7.50
2018-11-06T09:04:20.232Z,9.07
2018-11-06T09:06:48.320Z,7.17
2018-11-06T09:09:16.401Z,8.63
2018-11-06T09:11:44.485Z,7.83
2018-11-06T09:14:12.569Z,7.17
2018-11-06T09:16:40.677Z,8.97
2018-11-06T09:19:08.819Z,7.47
2018-11-06T09:21:36.933Z,7.97
2018-11-06T09:24:05.412Z,7.93
2018-11-06T09:26:33.489Z,7.93
2018-11-06T09:29:01.617Z,8.40
2018-11-06T09:31:30.112Z,7.80
2018-11-06T09:33:58.901Z,7.50
2018-11-06T09:36:27.675Z,7.80
2018-11-06T09:38:55.781Z,8.77
2018-11-06T09:41:24.332Z,8.83
2018-11-06T09:43:52.642Z,7.37
2018-11-06T09:46:20.693Z,7.50
2018-11-06T09:48:48.831Z,8.10
2018-11-06T09:51:16.837Z,8.50
2018-11-06T09:53:44.915Z,8.90
2018-11-06T09:56:12.993Z,9.13
2018-11-06T09:58:41.073Z,8.90
2018-11-06T10:01:09.153Z,8.83
2018-11-06T10:03:37.273Z,7.50
2018-11-06T10:06:05.835Z,7.70
2018-11-06T10:08:33.852Z,7.10
2018-11-06T10:11:01.933Z,8.17
2018-11-06T10:13:30.011Z,8.37
2018-11-06T10:15:58.085Z,9.70
2018-11-06T10:18:26.171Z,10.20
2018-11-06T10:20:54.243Z,10.90
2018-11-06T10:23:22.354Z,10.13
2018-11-06T10:25:50.479Z,12.53
2018-11-06T10:28:18.558Z,12.27
2018-11-06T10:30:46.680Z,11.10
2018-11-06T10:33:14.756Z,10.93
2018-11-06T10:35:42.847Z,10.60
2018-11-06T10:38:10.930Z,9.20
2018-11-06T10:40:38.998Z,8.43
2018-11-06T10:43:07.145Z,9.67
2018-11-06T10:45:35.217Z,10.10
2018-11-06T10:48:03.358Z,11.53
2018-11-06T10:50:31.456Z,11.50
2018-11-06T10:52:59.549Z,8.60
2018-11-06T10:55:27.621Z,11.00
2018-11-06T10:57:55.774Z,10.13
2018-11-06T11:00:29.363Z,10.30
2018-11-06T11:03:02.930Z,10.63
2018-11-06T11:05:31.268Z,11.20
2018-11-06T11:07:59.366Z,10.83
2018-11-06T11:10:27.429Z,10.73
2018-11-06T11:12:55.535Z,11.30
2018-11-06T11:15:23.616Z,11.87
2018-11-06T11:17:51.698Z,11.37
2018-11-06T11:20:19.894Z,10.13
2018-11-06T11:22:47.922Z,11.23
2018-11-06T11:25:16.877Z,10.30
2018-11-06T11:27:45.691Z,9.87
2018-11-06T11:30:15.174Z,13.00
2018-11-06T11:32:44.873Z,12.97
2018-11-06T11:35:13.561Z,12.17
2018-11-06T11:37:42.013Z,13.27
2018-11-06T11:40:11.651Z,13.07
2018-11-06T11:42:39.745Z,10.90
2018-11-06T11:45:09.576Z,10.47
2018-11-06T11:47:37.749Z,10.87
2018-11-06T11:50:07.429Z,9.97
2018-11-06T11:52:35.529Z,11.90
2018-11-06T11:55:03.705Z,12.97
2018-11-06T11:57:31.801Z,11.43
2018-11-06T11:59:59.916Z,10.80
2018-11-06T12:02:27.990Z,12.10
2018-11-06T12:04:56.122Z,12.63
2018-11-06T12:07:24.200Z,11.47
2018-11-06T12:09:52.267Z,11.40
2018-11-06T12:12:20.381Z,13.03
2018-11-06T12:14:48.496Z,12.23
2018-11-06T12:17:16.590Z,11.70
2018-11-06T12:19:44.658Z,12.90
2018-11-06T12:22:12.777Z,12.03
2018-11-06T12:24:40.988Z,11.30
2018-11-06T12:27:09.017Z,11.10
2018-11-06T12:29:37.161Z,10.03
2018-11-06T12:32:05.251Z,11.40
2018-11-06T12:34:33.645Z,11.97
2018-11-06T12:37:01.814Z,12.30
2018-11-06T12:39:29.803Z,13.03
2018-11-06T12:41:57.917Z,9.13
2018-11-06T12:44:26.013Z,10.00
2018-11-06T12:46:54.536Z,9.50
2018-11-06T12:49:22.681Z,9.10
2018-11-06T12:51:50.811Z,8.60
2018-11-06T12:54:18.937Z,8.57
2018-11-06T12:56:47.072Z,8.60
2018-11-06T12:59:15.261Z,7.40
2018-11-06T13:01:43.411Z,8.33
2018-11-06T13:04:11.506Z,8.60
2018-11-06T13:06:39.628Z,7.97
2018-11-06T13:09:09.937Z,8.77
2018-11-06T13:11:38.560Z,8.40
2018-11-06T13:14:07.205Z,9.50
2018-11-06T13:16:35.448Z,8.47
2018-11-06T13:19:03.531Z,8.60
2018-11-06T13:21:31.669Z,8.80
2018-11-06T13:23:59.773Z,9.20
2018-11-06T13:26:28.144Z,8.47
2018-11-06T13:28:56.080Z,9.20
2018-11-06T13:31:24.238Z,8.57
2018-11-06T13:33:52.380Z,8.97
2018-11-06T13:36:20.534Z,9.50
2018-11-06T13:38:48.664Z,7.17
2018-11-06T13:41:16.815Z,8.70
2018-11-06T13:43:45.061Z,8.43
2018-11-06T13:46:13.098Z,9.30
2018-11-06T13:48:41.201Z,9.73
2018-11-06T13:51:09.312Z,9.23
2018-11-06T13:53:37.429Z,7.80
2018-11-06T13:56:05.714Z,9.77
2018-11-06T13:58:33.907Z,8.30
2018-11-06T14:01:02.046Z,10.70
2018-11-06T14:03:30.217Z,8.60
2018-11-06T14:05:58.307Z,8.80
2018-11-06T14:08:26.517Z,10.43
2018-11-06T14:10:54.793Z,7.80
2018-11-06T14:13:22.888Z,10.03
2018-11-06T14:15:50.994Z,10.30
2018-11-06T14:18:19.098Z,9.77
2018-11-06T14:20:47.205Z,10.07
2018-11-06T14:23:15.340Z,9.00
2018-11-06T14:25:43.470Z,10.37
2018-11-06T14:28:11.581Z,19.23
2018-11-06T14:30:39.740Z,14.60
2018-11-06T14:33:07.933Z,16.87
2018-11-06T14:35:36.093Z,20.13
2018-11-06T14:38:04.189Z,12.80
2018-11-06T14:40:32.335Z,27.60
2018-11-06T14:43:00.469Z,24.10
2018-11-06T14:45:28.561Z,28.17
2018-11-06T14:47:56.714Z,25.60
2018-11-06T14:50:24.767Z,19.60
2018-11-06T14:52:52.873Z,18.23
2018-11-06T14:55:20.948Z,15.83
2018-11-06T14:57:49.030Z,16.10
2018-11-06T15:00:21.418Z,15.97
2018-11-06T15:02:50.994Z,12.43
2018-11-06T15:05:19.922Z,12.50
2018-11-06T15:07:48.022Z,13.33
2018-11-06T15:10:16.208Z,11.70
2018-11-06T15:12:44.864Z,11.77
2018-11-06T15:15:13.568Z,12.13
2018-11-06T15:17:43.158Z,11.10
2018-11-06T15:20:13.894Z,11.70
2018-11-06T15:22:42.752Z,12.57
2018-11-06T15:25:11.823Z,12.97
2018-11-06T15:27:40.374Z,12.73
2018-11-06T15:30:10.305Z,15.13
2018-11-06T15:32:38.565Z,13.80
2018-11-06T15:35:07.404Z,11.77
2018-11-06T15:37:36.216Z,12.50
2018-11-06T15:40:04.696Z,12.37
2018-11-06T15:42:32.889Z,12.70
2018-11-06T15:45:01.168Z,12.30
2018-11-06T15:47:29.240Z,11.83
2018-11-06T15:49:57.309Z,10.90
2018-11-06T15:52:25.472Z,10.10
2018-11-06T15:54:53.584Z,11.37
2018-11-06T15:57:21.835Z,11.70
2018-11-06T15:59:49.912Z,10.53
2018-11-06T16:02:18.058Z,8.30
2018-11-06T16:04:46.148Z,8.17
2018-11-06T16:07:14.341Z,8.50
2018-11-06T16:09:42.489Z,9.70
2018-11-06T16:12:10.657Z,7.50
2018-11-06T16:14:38.796Z,6.87
2018-11-06T16:17:06.912Z,8.13
2018-11-06T16:19:35.009Z,8.37
2018-11-06T16:22:03.084Z,10.33
2018-11-06T16:24:31.462Z,8.03
2018-11-06T16:26:59.538Z,7.77
2018-11-06T16:29:27.659Z,6.93
2018-11-06T16:31:55.761Z,4.97
2018-11-06T16:34:23.820Z,4.93
2018-11-06T16:36:51.912Z,6.17
2018-11-06T16:39:19.985Z,4.80
2018-11-06T16:41:48.085Z,3.87
2018-11-06T16:44:16.172Z,4.60
2018-11-06T16:46:44.271Z,5.10
2018-11-06T16:49:12.915Z,4.30
2018-11-06T16:51:41.139Z,5.43
2018-11-06T16:54:09.204Z,5.47
2018-11-06T16:56:37.324Z,5.53
2018-11-06T16:59:05.531Z,6.10
2018-11-06T17:01:33.689Z,6.37
2018-11-06T17:04:01.985Z,5.30
2018-11-06T17:06:35.344Z,6.50
2018-11-06T17:09:05.100Z,6.80
2018-11-06T17:11:33.160Z,7.03
2018-11-06T17:14:01.295Z,6.10
2018-11-06T17:16:29.382Z,6.63
2018-11-06T17:18:57.884Z,6.47
2018-11-06T17:21:26.839Z,6.30
2018-11-06T17:23:55.011Z,6.13
2018-11-06T17:26:23.141Z,7.80
2018-11-06T17:28:51.477Z,5.77
2018-11-06T17:31:19.593Z,6.17
2018-11-06T17:33:47.718Z,6.27
2018-11-06T17:36:16.184Z,5.67
2018-11-06T17:38:44.299Z,7.03
2018-11-06T17:41:13.273Z,5.43
2018-11-06T17:43:42.213Z,6.53
2018-11-06T17:46:10.324Z,6.70
2018-11-06T17:48:38.430Z,6.80
2018-11-06T17:51:06.502Z,6.57
2018-11-06T17:53:34.736Z,6.97
2018-11-06T17:56:02.887Z,7.47
2018-11-06T17:58:31.099Z,7.87
2018-11-06T18:00:59.160Z,8.20
2018-11-06T18:03:27.260Z,8.90
2018-11-06T18:05:55.354Z,7.47
2018-11-06T18:08:23.466Z,8.60
2018-11-06T18:10:51.569Z,8.10
2018-11-06T18:13:19.736Z,8.43
2018-11-06T18:15:47.893Z,6.90
2018-11-06T18:18:16.254Z,8.13
2018-11-06T18:20:44.389Z,8.07
2018-11-06T18:23:12.522Z,5.93
2018-11-06T18:25:40.770Z,7.40
2018-11-06T18:28:08.721Z,8.23
2018-11-06T18:30:36.853Z,7.30
2018-11-06T18:33:06.348Z,7.90
2018-11-06T18:35:34.471Z,6.90
2018-11-06T18:38:02.551Z,7.63
2018-11-06T18:40:30.685Z,8.70
2018-11-06T18:42:58.778Z,8.47
2018-11-06T18:45:26.852Z,8.10
2018-11-06T18:47:55.044Z,8.73
2018-11-06T18:50:23.026Z,7.97
2018-11-06T18:52:51.698Z,6.93
2018-11-06T18:55:19.944Z,7.63
2018-11-06T18:57:48.108Z,6.63
2018-11-06T19:00:17.656Z,11.23
2018-11-06T19:02:46.863Z,8.50
2018-11-06T19:05:15.637Z,8.23
2018-11-06T19:07:43.774Z,9.73
2018-11-06T19:10:13.248Z,10.00
2018-11-06T19:12:41.477Z,10.07
2018-11-06T19:15:14.028Z,9.40
2018-11-06T19:17:42.661Z,9.03
2018-11-06T19:20:11.793Z,11.57
2018-11-06T19:22:39.889Z,9.10
2018-11-06T19:25:09.064Z,8.70
2018-11-06T19:27:37.509Z,9.20
2018-11-06T19:30:08.047Z,9.20
2018-11-06T19:32:36.245Z,9.07
2018-11-06T19:35:04.409Z,9.47
2018-11-06T19:37:32.503Z,9.70
2018-11-06T19:40:00.672Z,9.83
2018-11-06T19:42:28.928Z,8.67
2018-11-06T19:44:56.929Z,8.60
2018-11-06T19:47:25.144Z,10.97
2018-11-06T19:49:53.220Z,9.63
2018-11-06T19:52:21.303Z,10.30
2018-11-06T19:54:49.373Z,9.70
2018-11-06T19:57:17.494Z,10.87
2018-11-06T19:59:45.589Z,9.30
2018-11-06T20:02:13.722Z,10.63
2018-11-06T20:04:41.855Z,9.80
2018-11-06T20:07:09.940Z,9.63
2018-11-06T20:09:38.075Z,9.23
2018-11-06T20:12:06.139Z,9.40
2018-11-06T20:14:34.184Z,8.70
2018-11-06T20:17:02.293Z,9.87
2018-11-06T20:19:30.414Z,8.13
2018-11-06T20:21:58.490Z,8.37
2018-11-06T20:24:26.600Z,7.97
2018-11-06T20:26:54.713Z,9.37
2018-11-06T20:29:22.941Z,9.30
2018-11-06T20:31:51.017Z,8.23
2018-11-06T20:34:19.163Z,9.37
2018-11-06T20:36:47.228Z,10.10
2018-11-06T20:39:15.326Z,8.87
2018-11-06T20:41:43.426Z,9.73
2018-11-06T20:44:11.524Z,13.73
2018-11-06T20:46:39.609Z,12.03
2018-11-06T20:49:07.793Z,11.13
2018-11-06T20:51:35.817Z,11.00
2018-11-06T20:54:04.246Z,10.57
2018-11-06T20:56:32.349Z,12.30
2018-11-06T20:59:00.617Z,11.67
2018-11-06T21:01:28.816Z,14.87
2018-11-06T21:03:56.944Z,13.67
2018-11-06T21:06:25.020Z,11.57
2018-11-06T21:08:53.153Z,9.10
2018-11-06T21:11:21.249Z,7.37
2018-11-06T21:13:49.433Z,7.63
2018-11-06T21:16:17.394Z,8.50
2018-11-06T21:18:45.455Z,7.30
2018-11-06T21:21:13.522Z,7.50
2018-11-06T21:23:41.783Z,9.30
2018-11-06T21:26:10.029Z,8.07
2018-11-06T21:28:37.992Z,8.37
2018-11-06T21:31:06.167Z,7.87
2018-11-06T21:33:34.393Z,7.10
2018-11-06T21:36:02.428Z,7.40
2018-11-06T21:38:30.534Z,6.77
2018-11-06T21:40:58.609Z,8.43
2018-11-06T21:43:26.711Z,7.93
2018-11-06T21:45:54.805Z,7.50
2018-11-06T21:48:22.896Z,7.87
2018-11-06T21:50:50.957Z,7.83
2018-11-06T21:53:19.041Z,6.27
2018-11-06T21:55:47.340Z,7.17
2018-11-06T21:58:15.441Z,7.20
2018-11-06T22:00:43.605Z,7.50
2018-11-06T22:03:11.633Z,6.60
2018-11-06T22:05:39.706Z,7.27
2018-11-06T22:08:07.800Z,7.70
2018-11-06T22:10:36.186Z,6.73
2018-11-06T22:13:04.409Z,6.83
2018-11-06T22:15:32.484Z,7.27
2018-11-06T22:18:00.663Z,6.53
2018-11-06T22:20:28.830Z,7.40
2018-11-06T22:22:57.316Z,5.80
2018-11-06T22:25:25.400Z,7.00
2018-11-06T22:27:53.508Z,7.00
2018-11-06T22:30:21.634Z,8.27
2018-11-06T22:32:50.410Z,7.00
2018-11-06T22:35:18.894Z,6.57
2018-11-06T22:37:46.999Z,7.47
2018-11-06T22:40:16.229Z,6.70
2018-11-06T22:42:44.323Z,6.37
2018-11-06T22:45:13.685Z,8.20
2018-11-06T22:47:42.132Z,7.30
2018-11-06T22:50:12.253Z,7.20
2018-11-06T22:52:40.516Z,5.97
2018-11-06T22:55:08.681Z,8.23
2018-11-06T22:57:36.780Z,8.20
2018-11-06T23:00:09.107Z,7.87
2018-11-06T23:02:37.212Z,5.67
2018-11-06T23:05:05.594Z,9.03
2018-11-06T23:07:39.166Z,7.23
2018-11-06T23:10:07.252Z,7.90
2018-11-06T23:12:35.377Z,7.10
2018-11-06T23:15:03.478Z,6.97
2018-11-06T23:17:31.559Z,8.60
2018-11-06T23:19:59.671Z,7.03
2018-11-06T23:22:27.745Z,7.47
2018-11-06T23:24:55.883Z,5.83
2018-11-06T23:27:23.885Z,6.83
2018-11-06T23:29:52.047Z,6.60
2018-11-06T23:32:20.099Z,7.60
2018-11-06T23:34:48.214Z,6.77
2018-11-06T23:37:16.310Z,7.23
2018-11-06T23:39:44.456Z,8.13
2018-11-06T23:42:12.509Z,7.43
2018-11-06T23:44:40.690Z,7.67
2018-11-06T23:47:08.777Z,7.03
2018-11-06T23:49:36.875Z,7.70
2018-11-06T23:52:04.993Z,7.43
2018-11-06T23:54:33.107Z,5.87
2018-11-06T23:57:01.232Z,6.80
2018-11-06T23:59:29.348Z,7.80
